createdAt,value
2019-01-05T00:02:26.652Z,1.12
2019-01-05T00:05:15.991Z,1.13
2019-01-05T00:08:05.388Z,1.14
2019-01-05T00:10:55.637Z,1.09
2019-01-05T00:13:44.957Z,1.04
2019-01-05T00:16:34.517Z,1.01
2019-01-05T00:19:24.412Z,0.95
2019-01-05T00:22:14.327Z,0.93
2019-01-05T00:25:05.217Z,0.92
2019-01-05T00:27:55.083Z,0.90
2019-01-05T00:30:42.380Z,0.90
2019-01-05T00:33:32.307Z,0.84
2019-01-05T00:36:27.532Z,0.77
2019-01-05T00:39:16.981Z,0.69
2019-01-05T00:42:01.680Z,0.72
2019-01-05T00:44:51.777Z,0.74
2019-01-05T00:47:42.707Z,0.71
2019-01-05T00:50:32.522Z,0.69
2019-01-05T00:53:22.047Z,0.72
2019-01-05T00:56:12.100Z,0.72
2019-01-05T00:59:01.580Z,0.71
2019-01-05T01:01:50.988Z,0.69
2019-01-05T01:04:40.440Z,0.67
2019-01-05T01:07:29.944Z,0.68
2019-01-05T01:10:17.228Z,0.65
2019-01-05T01:13:06.717Z,0.65
2019-01-05T01:15:57.096Z,0.66
2019-01-05T01:18:46.607Z,0.67
2019-01-05T01:21:36.010Z,0.68
2019-01-05T01:24:18.230Z,0.69
2019-01-05T01:27:08.180Z,0.73
2019-01-05T01:29:58.410Z,0.75
2019-01-05T01:32:47.970Z,0.81
2019-01-05T01:35:37.392Z,0.83
2019-01-05T01:38:46.958Z,0.83
2019-01-05T01:41:59.778Z,0.84
2019-01-05T01:44:49.457Z,0.83
2019-01-05T01:47:39.357Z,0.85
2019-01-05T01:50:29.790Z,0.87
2019-01-05T01:53:23.510Z,0.87
2019-01-05T01:56:20.427Z,0.90
2019-01-05T01:59:12.036Z,0.89
2019-01-05T02:02:03.031Z,0.89
2019-01-05T02:04:52.766Z,0.84
2019-01-05T02:07:36.687Z,0.83
2019-01-05T02:10:26.682Z,0.81
2019-01-05T02:13:22.327Z,0.79
2019-01-05T02:16:15.823Z,0.78
2019-01-05T02:19:20.456Z,0.77
2019-01-05T02:22:55.337Z,0.78
2019-01-05T02:26:21.839Z,0.77
2019-01-05T02:30:04.312Z,0.80
2019-01-05T02:33:51.029Z,0.82
2019-01-05T02:37:32.700Z,0.85
2019-01-05T02:41:17.792Z,0.88
2019-01-05T02:44:35.331Z,0.89
2019-01-05T02:48:20.927Z,0.89
2019-01-05T02:52:01.072Z,0.89
2019-01-05T02:55:47.822Z,0.91
2019-01-05T02:59:29.139Z,0.89
2019-01-05T03:03:15.872Z,0.93
2019-01-05T03:06:55.657Z,0.97
2019-01-05T03:10:31.048Z,0.97
2019-01-05T03:14:09.866Z,0.99
2019-01-05T03:17:51.786Z,1.03
2019-01-05T03:21:38.528Z,1.02
2019-01-05T03:25:25.235Z,1.04
2019-01-05T03:29:03.056Z,1.09
2019-01-05T03:32:39.180Z,1.13
2019-01-05T03:36:14.782Z,1.19
2019-01-05T03:39:51.287Z,1.22
2019-01-05T03:43:20.967Z,1.29
2019-01-05T03:47:07.665Z,1.29
2019-01-05T03:50:54.408Z,1.36
2019-01-05T03:54:41.187Z,1.39
2019-01-05T03:58:08.252Z,1.41
2019-01-05T04:01:29.122Z,1.49
2019-01-05T04:05:15.057Z,1.47
2019-01-05T04:09:01.858Z,1.53
2019-01-05T04:12:38.892Z,1.54
2019-01-05T04:16:22.040Z,1.57
2019-01-05T04:19:58.690Z,1.59
2019-01-05T04:23:39.440Z,1.62
2019-01-05T04:27:13.357Z,1.63
2019-01-05T04:30:57.259Z,1.65
2019-01-05T04:34:34.551Z,1.66
2019-01-05T04:38:13.827Z,1.68
2019-01-05T04:41:58.079Z,1.68
2019-01-05T04:45:32.550Z,1.68
2019-01-05T04:48:58.431Z,1.73
2019-01-05T04:52:17.292Z,1.74
2019-01-05T04:55:43.402Z,1.80
2019-01-05T04:59:30.176Z,1.81
2019-01-05T05:02:53.020Z,1.83
2019-01-05T05:06:27.386Z,1.85
2019-01-05T05:10:12.326Z,1.85
2019-01-05T05:13:50.032Z,1.86
2019-01-05T05:17:28.388Z,1.95
2019-01-05T05:21:03.946Z,1.98
2019-01-05T05:24:49.832Z,2.02
2019-01-05T05:28:36.650Z,2.01
2019-01-05T05:32:02.889Z,2.10
2019-01-05T05:35:38.613Z,2.11
2019-01-05T05:39:16.137Z,2.13
2019-01-05T05:42:59.914Z,2.21
2019-01-05T05:46:38.842Z,2.29
2019-01-05T05:50:12.396Z,2.32
2019-01-05T05:53:52.852Z,2.36
2019-01-05T05:57:39.142Z,2.47
2019-01-05T06:01:21.584Z,2.48
2019-01-05T06:05:01.260Z,2.51
2019-01-05T06:08:35.347Z,2.56
2019-01-05T06:12:22.092Z,2.59
2019-01-05T06:16:08.776Z,2.59
2019-01-05T06:19:48.162Z,2.62
2019-01-05T06:23:27.212Z,2.62
2019-01-05T06:27:10.422Z,2.67
2019-01-05T06:30:57.152Z,2.65
2019-01-05T06:34:24.408Z,2.71
2019-01-05T06:37:50.163Z,2.73
2019-01-05T06:41:24.776Z,2.72
2019-01-05T06:45:02.462Z,2.75
2019-01-05T06:48:43.158Z,2.81
2019-01-05T06:52:10.089Z,2.84
2019-01-05T06:55:56.897Z,2.87
2019-01-05T06:59:33.472Z,2.87
2019-01-05T07:02:59.276Z,2.90
2019-01-05T07:06:22.865Z,2.91
2019-01-05T07:10:01.563Z,2.93
2019-01-05T07:13:31.323Z,2.99
2019-01-05T07:17:18.096Z,2.94
2019-01-05T07:20:53.822Z,2.97
2019-01-05T07:24:33.660Z,2.96
2019-01-05T07:28:20.529Z,3.00
2019-01-05T07:32:09.613Z,2.96
2019-01-05T07:35:55.062Z,3.04
2019-01-05T07:39:40.185Z,3.06
2019-01-05T07:43:18.544Z,3.10
2019-01-05T07:46:55.415Z,3.13
2019-01-05T07:50:45.536Z,3.17
2019-01-05T07:54:33.393Z,3.23
2019-01-05T07:58:13.388Z,3.28
2019-01-05T08:02:00.893Z,3.36
2019-01-05T08:05:48.497Z,3.39
2019-01-05T08:09:30.077Z,3.41
2019-01-05T08:13:16.571Z,3.52
2019-01-05T08:16:53.363Z,3.57
2019-01-05T08:20:32.394Z,3.65
2019-01-05T08:24:21.807Z,3.63
2019-01-05T08:28:08.597Z,3.64
2019-01-05T08:31:51.759Z,3.66
2019-01-05T08:35:36.196Z,3.68
2019-01-05T08:39:26.238Z,3.72
2019-01-05T08:43:14.907Z,3.77
2019-01-05T08:47:05.081Z,3.76
2019-01-05T08:50:58.192Z,3.71
2019-01-05T08:54:47.209Z,3.69
2019-01-05T08:58:37.435Z,3.72
2019-01-05T09:02:23.171Z,3.68
2019-01-05T09:06:07.179Z,3.72
2019-01-05T09:09:44.653Z,3.80
2019-01-05T09:13:28.091Z,3.85
2019-01-05T09:17:13.052Z,3.90
2019-01-05T09:20:53.823Z,3.93
2019-01-05T09:24:22.147Z,3.98
2019-01-05T09:28:01.507Z,3.99
2019-01-05T09:31:42.767Z,4.02
2019-01-05T09:35:15.911Z,4.04
2019-01-05T09:39:02.638Z,4.02
2019-01-05T09:42:49.448Z,4.04
2019-01-05T09:46:34.952Z,4.07
2019-01-05T09:50:17.246Z,4.06
2019-01-05T09:53:53.424Z,4.08
2019-01-05T09:57:40.398Z,4.05
2019-01-05T10:01:29.487Z,4.07
2019-01-05T10:06:17.383Z,4.18
2019-01-05T10:10:05.918Z,4.14
2019-01-05T10:13:52.792Z,4.14
2019-01-05T10:17:41.044Z,4.20
2019-01-05T10:21:29.489Z,4.14
2019-01-05T10:25:17.632Z,4.12
2019-01-05T10:28:58.042Z,4.12
2019-01-05T10:32:36.799Z,4.17
2019-01-05T10:36:24.931Z,4.14
2019-01-05T10:40:20.842Z,4.15
2019-01-05T10:44:04.329Z,4.11
2019-01-05T10:47:42.151Z,4.13
2019-01-05T10:51:29.383Z,4.08
2019-01-05T10:55:16.333Z,4.10
2019-01-05T10:58:42.342Z,4.05
2019-01-05T11:02:21.830Z,4.00
2019-01-05T11:06:00.635Z,3.95
2019-01-05T11:09:43.733Z,3.89
2019-01-05T11:13:26.894Z,3.80
2019-01-05T11:17:09.674Z,3.77
2019-01-05T11:20:41.037Z,3.69
2019-01-05T11:24:35.000Z,3.75
2019-01-05T11:28:19.052Z,3.84
2019-01-05T11:32:09.004Z,3.98
2019-01-05T11:35:46.834Z,4.11
2019-01-05T11:39:33.995Z,4.05
2019-01-05T11:43:11.553Z,4.12
2019-01-05T11:46:44.842Z,4.13
2019-01-05T11:50:26.392Z,4.26
2019-01-05T11:54:14.437Z,4.24
2019-01-05T11:57:54.946Z,4.26
2019-01-05T12:01:34.538Z,4.23
2019-01-05T12:05:11.050Z,4.11
2019-01-05T12:08:43.242Z,4.01
2019-01-05T12:12:27.870Z,3.89
2019-01-05T12:16:07.839Z,3.82
2019-01-05T12:19:49.633Z,3.85
2019-01-05T12:23:29.837Z,3.81
2019-01-05T12:27:16.639Z,3.88
2019-01-05T12:31:03.457Z,3.86
2019-01-05T12:34:51.559Z,3.90
2019-01-05T12:38:39.193Z,3.87
2019-01-05T12:42:21.733Z,3.81
2019-01-05T12:45:49.045Z,3.74
2019-01-05T12:49:37.043Z,3.65
2019-01-05T12:53:25.983Z,3.55
2019-01-05T12:57:06.485Z,3.41
2019-01-05T13:00:44.980Z,3.22
2019-01-05T13:04:31.841Z,3.16
2019-01-05T13:08:18.748Z,3.12
2019-01-05T13:12:00.039Z,3.13
2019-01-05T13:15:46.801Z,3.08
2019-01-05T13:19:35.770Z,3.06
2019-01-05T13:23:21.582Z,3.04
2019-01-05T13:27:03.284Z,2.99
2019-01-05T13:30:56.293Z,2.98
2019-01-05T13:34:43.335Z,2.92
2019-01-05T13:38:30.123Z,2.91
2019-01-05T13:42:09.447Z,2.97
2019-01-05T13:45:36.582Z,2.98
2019-01-05T13:49:14.289Z,3.00
2019-01-05T13:52:58.830Z,2.99
2019-01-05T13:59:18.282Z,3.12
2019-01-05T14:02:10.828Z,3.05
2019-01-05T14:05:03.383Z,3.06
2019-01-05T14:07:54.280Z,3.11
2019-01-05T14:10:47.550Z,3.16
2019-01-05T14:13:37.331Z,3.15
2019-01-05T14:16:30.279Z,3.12
2019-01-05T14:19:28.092Z,3.13
2019-01-05T14:22:28.039Z,3.01
2019-01-05T14:25:34.291Z,2.95
2019-01-05T14:28:37.433Z,2.94
2019-01-05T14:31:27.629Z,2.92
2019-01-05T14:34:19.672Z,2.83
2019-01-05T14:37:14.032Z,2.80
2019-01-05T14:40:05.184Z,2.67
2019-01-05T14:42:59.349Z,2.54
2019-01-05T14:45:49.017Z,2.47
2019-01-05T14:48:38.482Z,2.51
2019-01-05T14:51:28.032Z,2.48
2019-01-05T14:54:17.472Z,2.39
2019-01-05T14:57:06.958Z,2.30
2019-01-05T14:59:56.423Z,2.24
2019-01-05T15:02:45.732Z,2.20
2019-01-05T15:05:36.142Z,2.03
2019-01-05T15:08:25.637Z,2.01
2019-01-05T15:11:15.096Z,2.01
2019-01-05T15:14:01.464Z,2.13
2019-01-05T15:16:50.953Z,2.25
2019-01-05T15:19:40.460Z,2.31
2019-01-05T15:22:29.936Z,2.42
2019-01-05T15:25:19.513Z,2.48
2019-01-05T15:28:08.937Z,2.50
2019-01-05T15:30:58.304Z,2.52
2019-01-05T15:33:47.713Z,2.57
2019-01-05T15:36:37.196Z,2.59
2019-01-05T15:39:28.009Z,2.61
2019-01-05T15:42:17.483Z,2.64
2019-01-05T15:45:06.812Z,2.66
2019-01-05T15:47:56.133Z,2.67
2019-01-05T15:50:45.563Z,2.70
2019-01-05T15:53:32.402Z,2.73
2019-01-05T15:56:21.844Z,2.76
2019-01-05T15:59:11.406Z,2.81
2019-01-05T16:02:00.987Z,2.81
2019-01-05T16:04:50.279Z,2.86
2019-01-05T16:07:39.696Z,2.87
2019-01-05T16:10:29.143Z,2.83
2019-01-05T16:13:18.518Z,2.83
2019-01-05T16:16:08.214Z,2.79
2019-01-05T16:18:57.756Z,2.80
2019-01-05T16:21:47.222Z,2.76
2019-01-05T16:24:36.599Z,2.78
2019-01-05T16:27:25.902Z,2.78
2019-01-05T16:30:15.338Z,2.81
2019-01-05T16:33:04.884Z,2.87
2019-01-05T16:35:54.183Z,2.89
2019-01-05T16:38:43.587Z,2.92
2019-01-05T16:41:32.812Z,2.87
2019-01-05T16:44:22.246Z,2.89
2019-01-05T16:47:11.548Z,2.90
2019-01-05T16:50:00.939Z,2.92
2019-01-05T16:52:46.716Z,2.94
2019-01-05T16:55:39.581Z,2.91
2019-01-05T16:58:29.187Z,2.83
2019-01-05T17:01:22.595Z,2.89
2019-01-05T17:04:08.812Z,2.88
2019-01-05T17:06:58.235Z,2.87
2019-01-05T17:09:47.762Z,2.86
2019-01-05T17:12:37.551Z,2.86
2019-01-05T17:15:27.793Z,2.89
2019-01-05T17:18:17.322Z,2.86
2019-01-05T17:21:06.773Z,2.83
2019-01-05T17:23:56.186Z,2.82
2019-01-05T17:26:46.023Z,2.80
2019-01-05T17:29:35.715Z,2.80
2019-01-05T17:32:25.208Z,2.75
2019-01-05T17:35:14.712Z,2.75
2019-01-05T17:38:04.104Z,2.74
2019-01-05T17:40:53.541Z,2.68
2019-01-05T17:43:42.922Z,2.65
2019-01-05T17:46:32.357Z,2.65
2019-01-05T17:49:21.776Z,2.65
2019-01-05T17:52:11.268Z,2.66
2019-01-05T17:55:00.709Z,2.63
2019-01-05T17:57:50.192Z,2.54
2019-01-05T18:00:39.684Z,2.46
2019-01-05T18:03:29.254Z,2.40
2019-01-05T18:06:18.636Z,2.32
2019-01-05T18:09:08.278Z,2.30
2019-01-05T18:11:57.818Z,2.27
2019-01-05T18:14:41.147Z,2.22
2019-01-05T18:17:31.503Z,2.21
2019-01-05T18:20:21.006Z,2.18
2019-01-05T18:23:10.426Z,2.19
2019-01-05T18:26:02.154Z,2.15
2019-01-05T18:28:51.745Z,2.19
2019-01-05T18:31:41.295Z,2.15
2019-01-05T18:34:30.763Z,2.09
2019-01-05T18:37:20.253Z,2.16
2019-01-05T18:40:10.002Z,2.17
2019-01-05T18:42:56.812Z,2.19
2019-01-05T18:45:46.211Z,2.18
2019-01-05T18:48:39.300Z,2.19
2019-01-05T18:51:28.798Z,2.16
2019-01-05T18:54:18.423Z,2.15
2019-01-05T18:57:07.981Z,2.09
2019-01-05T18:59:57.519Z,2.05
2019-01-05T19:02:47.003Z,1.99
2019-01-05T19:05:41.741Z,1.94
2019-01-05T19:08:31.277Z,1.92
2019-01-05T19:11:20.805Z,1.91
2019-01-05T19:14:12.480Z,1.97
2019-01-05T19:17:01.994Z,1.95
2019-01-05T19:19:48.719Z,1.96
2019-01-05T19:22:38.322Z,1.95
2019-01-05T19:25:27.808Z,1.93
2019-01-05T19:28:18.915Z,1.91
2019-01-05T19:31:08.313Z,1.92
2019-01-05T19:34:02.533Z,1.86
2019-01-05T19:36:52.063Z,1.85
2019-01-05T19:39:42.649Z,1.85
2019-01-05T19:42:32.063Z,1.82
2019-01-05T19:45:22.687Z,1.83
2019-01-05T19:48:12.357Z,1.79
2019-01-05T19:51:01.957Z,1.80
2019-01-05T19:53:47.809Z,1.81
2019-01-05T19:56:37.297Z,1.76
2019-01-05T19:59:26.815Z,1.72
2019-01-05T20:02:16.329Z,1.69
2019-01-05T20:05:05.752Z,1.59
2019-01-05T20:08:00.980Z,1.48
2019-01-05T20:10:51.945Z,1.40
2019-01-05T20:13:41.682Z,1.38
2019-01-05T20:16:31.095Z,1.35
2019-01-05T20:19:32.052Z,1.29
2019-01-05T20:22:27.333Z,1.35
2019-01-05T20:25:16.806Z,1.39
2019-01-05T20:28:08.936Z,1.39
2019-01-05T20:31:00.545Z,1.40
2019-01-05T20:33:53.143Z,1.43
2019-01-05T20:36:45.031Z,1.38
2019-01-05T20:39:32.676Z,1.38
2019-01-05T20:42:22.115Z,1.34
2019-01-05T20:45:13.878Z,1.33
2019-01-05T20:48:05.278Z,1.32
2019-01-05T20:50:55.875Z,1.33
2019-01-05T20:53:47.974Z,1.30
2019-01-05T20:56:43.484Z,1.29
2019-01-05T20:59:37.949Z,1.29
2019-01-05T21:02:29.452Z,1.25
2019-01-05T21:05:27.844Z,1.24
2019-01-05T21:08:06.230Z,1.26
2019-01-05T21:10:57.939Z,1.25
2019-01-05T21:13:57.753Z,1.21
2019-01-05T21:16:49.550Z,1.18
2019-01-05T21:19:39.768Z,1.19
2019-01-05T21:22:27.998Z,1.17
2019-01-05T21:25:17.409Z,1.15
2019-01-05T21:28:13.721Z,1.11
2019-01-05T21:31:03.291Z,1.10
2019-01-05T21:33:55.919Z,1.11
2019-01-05T21:36:46.743Z,1.09
2019-01-05T21:39:36.236Z,1.05
2019-01-05T21:42:25.799Z,1.03
2019-01-05T21:45:17.427Z,0.99
2019-01-05T21:48:06.796Z,0.99
2019-01-05T21:50:57.235Z,0.93
2019-01-05T21:53:46.496Z,0.91
2019-01-05T21:56:35.919Z,0.90
2019-01-05T21:59:27.604Z,0.92
2019-01-05T22:02:17.052Z,0.90
2019-01-05T22:05:07.410Z,0.86
2019-01-05T22:07:58.099Z,0.85
2019-01-05T22:10:47.556Z,0.87
2019-01-05T22:13:37.042Z,0.81
2019-01-05T22:16:26.654Z,0.85
2019-01-05T22:19:16.254Z,0.89
2019-01-05T22:22:02.101Z,0.82
2019-01-05T22:24:44.266Z,0.82
2019-01-05T22:27:33.736Z,0.84
2019-01-05T22:30:24.049Z,0.79
2019-01-05T22:33:13.894Z,0.79
2019-01-05T22:36:04.239Z,0.78
2019-01-05T22:38:54.959Z,0.77
2019-01-05T22:41:44.525Z,0.74
2019-01-05T22:44:27.031Z,0.77
2019-01-05T22:47:16.542Z,0.71
2019-01-05T22:50:05.784Z,0.73
2019-01-05T22:52:55.256Z,0.70
2019-01-05T22:55:44.724Z,0.71
2019-01-05T22:58:33.999Z,0.67
2019-01-05T23:01:23.552Z,0.69
2019-01-05T23:04:12.911Z,0.70
2019-01-05T23:07:02.343Z,0.64
2019-01-05T23:09:51.175Z,0.65
2019-01-05T23:12:40.779Z,0.64
2019-01-05T23:15:30.282Z,0.64
2019-01-05T23:18:19.624Z,0.67
2019-01-05T23:21:09.059Z,0.65
2019-01-05T23:23:58.517Z,0.66
2019-01-05T23:26:47.930Z,0.66
2019-01-05T23:29:37.255Z,0.64
2019-01-05T23:32:26.725Z,0.66
2019-01-05T23:35:16.008Z,0.69
2019-01-05T23:38:05.380Z,0.65
2019-01-05T23:40:54.776Z,0.67
2019-01-05T23:43:44.231Z,0.67
2019-01-05T23:46:28.710Z,0.67
2019-01-05T23:49:17.999Z,0.69
2019-01-05T23:52:07.369Z,0.69
2019-01-05T23:54:57.029Z,0.73
2019-01-05T23:57:46.390Z,0.69
